< < Back
Terminal Aerodrome Forecast


Current Version              Previous Versions:   1  2  3  4  5  6  7  8  9  

Terminal Aerodrome Forecast

977
FTUS42 KTAE 270533
TAFABY
TAF
KABY 270533Z 2706/2806 25003KT P6SM BKN200
     FM271400 VRB05KT P6SM SCT100 OVC250=

Latest METAR

862
SAUS70 KWBC 271800 RRA
MTRABY
METAR KABY 271753Z 04003KT 10SM CLR 22/14 A2986 RMK AO2 SLP111 T02170139
10222 20172 58004


USA.gov is the U.S. government's official web portal to all federal, state and local government web resources and services.